Time;durP1;ratioP1;P1;durP2;ratioP2;P2;SDS_P1;SDS_P2;PMS_P1;PMS_P2;Temp;Humidity;BMP_temperature;BMP_pressure;BME280_temperature;BME280_humidity;BME280_pressure;Samples;Min_cycle;Max_cycle;Signal;HPM_P1;HPM_P2
2021/07/05 00:01:21;;;;;;;4.18;2.00;;;17.50;99.90;;;;;;5050263;28;20025;-73
2021/07/05 00:03:47;;;;;;;5.40;2.50;;;17.60;99.90;;;;;;5051331;28;20029;-73
2021/07/05 00:06:13;;;;;;;4.18;2.40;;;17.40;99.90;;;;;;5048649;28;20116;-73
2021/07/05 00:08:39;;;;;;;4.38;2.58;;;17.40;99.90;;;;;;5050195;28;20538;-73
2021/07/05 00:11:05;;;;;;;3.35;1.85;;;17.20;99.90;;;;;;5050695;28;20111;-73
2021/07/05 00:13:32;;;;;;;5.45;2.38;;;17.00;99.90;;;;;;5052023;28;20395;-73
2021/07/05 00:15:58;;;;;;;4.85;2.67;;;17.10;99.90;;;;;;5050601;28;20123;-73
2021/07/05 00:18:24;;;;;;;4.20;2.20;;;17.10;99.90;;;;;;5053301;28;20029;-73
2021/07/05 00:20:50;;;;;;;4.03;2.03;;;17.00;99.90;;;;;;5053087;28;20085;-73
2021/07/05 00:23:16;;;;;;;3.35;1.90;;;16.90;99.90;;;;;;5053799;28;20056;-73
2021/07/05 00:25:43;;;;;;;5.25;2.35;;;17.10;99.90;;;;;;5054527;28;20120;-73
2021/07/05 00:28:09;;;;;;;6.35;2.67;;;17.10;99.90;;;;;;5054794;28;20029;-73
2021/07/05 00:30:36;;;;;;;6.13;2.38;;;17.00;99.90;;;;;;5054470;28;20036;-73
2021/07/05 00:33:03;;;;;;;8.82;2.72;;;16.80;99.90;;;;;;5055162;28;20100;-73
2021/07/05 00:35:29;;;;;;;4.90;2.40;;;16.90;99.90;;;;;;5054666;28;20033;-73
2021/07/05 00:37:56;;;;;;;5.78;3.45;;;17.00;99.90;;;;;;5043595;28;20036;-73
2021/07/05 00:40:23;;;;;;;6.10;2.50;;;16.90;99.90;;;;;;5047057;28;20025;-73
2021/07/05 00:42:49;;;;;;;4.90;2.25;;;17.00;99.90;;;;;;5052258;28;20048;-73
2021/07/05 00:45:16;;;;;;;3.88;2.38;;;16.90;99.90;;;;;;5053930;28;20032;-73
2021/07/05 00:47:42;;;;;;;4.18;2.65;;;17.00;99.90;;;;;;5054145;28;20029;-73
2021/07/05 00:50:09;;;;;;;4.72;2.13;;;17.10;99.90;;;;;;5054592;28;20024;-73
2021/07/05 00:52:37;;;;;;;5.90;2.75;;;17.00;99.90;;;;;;5054595;28;20040;-73
2021/07/05 00:55:07;;;;;;;5.10;2.45;;;17.00;99.90;;;;;;5054360;28;20414;-73
2021/07/05 00:57:32;;;;;;;4.47;2.20;;;17.00;99.90;;;;;;5053884;28;20388;-73
2021/07/05 00:59:58;;;;;;;4.85;2.40;;;16.80;99.90;;;;;;5054490;28;20029;-73
2021/07/05 01:02:26;;;;;;;3.65;1.83;;;16.70;99.90;;;;;;5054584;28;20013;-73
2021/07/05 01:04:53;;;;;;;3.72;2.10;;;16.80;99.90;;;;;;5054009;28;20416;-73
2021/07/05 01:07:20;;;;;;;3.72;2.45;;;16.80;99.90;;;;;;5047707;28;20090;-73
2021/07/05 01:09:46;;;;;;;5.65;2.50;;;17.10;99.90;;;;;;5052334;28;20082;-73
2021/07/05 01:12:12;;;;;;;3.70;2.30;;;17.30;99.90;;;;;;5051525;28;20044;-73
2021/07/05 01:14:39;;;;;;;10.27;2.00;;;17.30;99.90;;;;;;5067715;28;20116;-73
2021/07/05 01:17:15;;;;;;;4.63;2.28;;;17.20;99.90;;;;;;5051514;28;20032;-74
2021/07/05 01:19:44;;;;;;;3.30;2.25;;;17.10;99.90;;;;;;5051735;28;20028;-73
2021/07/05 01:22:11;;;;;;;4.03;1.98;;;17.20;99.90;;;;;;5051485;28;20036;-73
2021/07/05 01:24:37;;;;;;;3.10;1.98;;;17.30;99.90;;;;;;5052816;28;20021;-73
2021/07/05 01:27:04;;;;;;;6.97;2.40;;;17.00;99.90;;;;;;5053260;28;20028;-73
2021/07/05 01:29:30;;;;;;;3.42;2.28;;;17.00;99.90;;;;;;5054127;28;20033;-73
2021/07/05 01:31:57;;;;;;;3.38;1.90;;;17.10;99.90;;;;;;5053403;28;20037;-73
2021/07/05 01:34:23;;;;;;;4.18;2.22;;;17.00;99.90;;;;;;5053588;28;20068;-73
2021/07/05 01:36:49;;;;;;;4.00;2.40;;;17.10;99.90;;;;;;5053032;28;20025;-73
2021/07/05 01:39:15;;;;;;;9.73;2.50;;;17.30;99.90;;;;;;5053302;28;20096;-73
2021/07/05 01:41:41;;;;;;;4.18;2.08;;;17.30;99.90;;;;;;5052974;28;20566;-73
2021/07/05 01:44:07;;;;;;;3.92;2.38;;;17.30;99.90;;;;;;5053595;28;20029;-73
2021/07/05 01:46:32;;;;;;;7.07;2.10;;;17.20;99.90;;;;;;5053321;28;20078;-73
2021/07/05 01:48:59;;;;;;;3.42;1.92;;;17.20;99.90;;;;;;5053202;28;20036;-73
2021/07/05 01:51:25;;;;;;;3.50;1.92;;;17.20;99.90;;;;;;5053312;28;20059;-73
2021/07/05 01:53:51;;;;;;;2.55;1.65;;;17.20;99.90;;;;;;5053611;28;20059;-73
2021/07/05 01:56:17;;;;;;;2.72;1.67;;;17.30;99.90;;;;;;5053109;28;20068;-73
2021/07/05 01:58:43;;;;;;;5.47;1.95;;;17.40;99.90;;;;;;5053113;28;20025;-73
2021/07/05 02:01:09;;;;;;;4.03;1.85;;;17.30;99.90;;;;;;5050502;28;20483;-73
2021/07/05 02:03:35;;;;;;;6.55;2.15;;;17.30;99.90;;;;;;5053312;28;20078;-74
2021/07/05 02:06:01;;;;;;;5.00;2.20;;;17.20;99.90;;;;;;5052776;28;20028;-74
2021/07/05 02:08:27;;;;;;;2.97;1.70;;;17.30;99.90;;;;;;5045492;28;20029;-73
2021/07/05 02:10:54;;;;;;;3.03;1.48;;;17.20;99.90;;;;;;5051087;28;20032;-73
2021/07/05 02:13:32;;;;;;;4.00;1.67;;;17.30;99.90;;;;;;5050440;28;20083;-73
2021/07/05 02:16:00;;;;;;;3.85;1.63;;;17.30;99.90;;;;;;5050427;28;20037;-73
2021/07/05 02:18:27;;;;;;;2.88;1.50;;;17.20;99.90;;;;;;5050979;28;20511;-73
2021/07/05 02:20:54;;;;;;;3.45;1.65;;;17.20;99.90;;;;;;5050453;28;20458;-73
2021/07/05 02:23:21;;;;;;;3.70;1.30;;;17.10;99.90;;;;;;5049840;28;20029;-73
2021/07/05 02:25:48;;;;;;;3.88;1.33;;;17.10;99.90;;;;;;5050765;28;20518;-73
2021/07/05 02:28:17;;;;;;;3.40;1.70;;;17.10;99.90;;;;;;5049555;28;20033;-73
2021/07/05 02:30:47;;;;;;;3.15;1.50;;;17.10;99.90;;;;;;5052358;28;20033;-73
2021/07/05 02:33:16;;;;;;;3.00;1.80;;;17.10;99.90;;;;;;5051388;28;20040;-74
2021/07/05 02:35:42;;;;;;;2.88;1.38;;;17.10;99.90;;;;;;5052383;28;20105;-73
2021/07/05 02:38:10;;;;;;;2.50;1.30;;;17.10;99.90;;;;;;5047718;28;20120;-74
2021/07/05 02:40:46;;;;;;;3.50;1.70;;;17.00;99.90;;;;;;5052484;28;20044;-73
2021/07/05 02:43:13;;;;;;;4.53;1.75;;;17.00;99.90;;;;;;5052047;28;20061;-73
2021/07/05 02:45:41;;;;;;;5.20;1.67;;;17.00;99.90;;;;;;5052253;28;20524;-73
2021/07/05 02:48:13;;;;;;;1.85;1.25;;;16.90;99.90;;;;;;5051894;28;20027;-73
2021/07/05 02:50:41;;;;;;;3.97;1.60;;;16.90;99.90;;;;;;5052097;28;20072;-73
2021/07/05 02:53:08;;;;;;;2.88;1.48;;;17.00;99.90;;;;;;5051691;28;20025;-73
2021/07/05 02:55:34;;;;;;;2.60;1.35;;;17.00;99.90;;;;;;5052262;28;20025;-73
2021/07/05 02:58:00;;;;;;;2.22;1.40;;;17.00;99.90;;;;;;5051867;28;20504;-73
2021/07/05 03:00:34;;;;;;;3.00;1.77;;;17.00;99.90;;;;;;5052059;28;20039;-73
2021/07/05 03:03:00;;;;;;;3.80;1.40;;;17.00;99.90;;;;;;5042923;28;20033;-73
2021/07/05 03:05:28;;;;;;;3.05;1.27;;;16.80;99.90;;;;;;5028798;28;20052;-73
2021/07/05 03:07:55;;;;;;;3.85;1.58;;;17.00;99.90;;;;;;5034459;28;20056;-74
2021/07/05 03:10:26;;;;;;;4.45;1.23;;;16.90;99.90;;;;;;5033988;28;21072;-74
2021/07/05 03:12:53;;;;;;;4.10;1.35;;;16.80;99.90;;;;;;5043106;28;20031;-73
2021/07/05 03:15:20;;;;;;;5.40;1.30;;;16.90;99.90;;;;;;5042176;28;20021;-73
2021/07/05 03:17:47;;;;;;;3.88;1.33;;;16.90;99.90;;;;;;5042786;28;20029;-73
2021/07/05 03:20:16;;;;;;;4.07;1.40;;;16.90;99.90;;;;;;5042730;28;20071;-73
2021/07/05 03:22:42;;;;;;;2.55;1.30;;;16.80;99.90;;;;;;5042647;28;20025;-73
2021/07/05 03:25:10;;;;;;;2.88;1.55;;;16.70;99.90;;;;;;5042143;28;21079;-73
2021/07/05 03:27:36;;;;;;;3.15;1.52;;;16.50;99.90;;;;;;5044424;28;20029;-73
2021/07/05 03:30:05;;;;;;;4.30;1.63;;;16.50;99.90;;;;;;5043576;28;20085;-73
2021/07/05 03:32:31;;;;;;;4.22;1.30;;;16.60;99.90;;;;;;5043936;28;20048;-73
2021/07/05 03:34:57;;;;;;;2.22;1.23;;;16.40;99.90;;;;;;5043494;28;20029;-73
2021/07/05 03:37:22;;;;;;;2.33;1.30;;;16.20;99.90;;;;;;5044084;28;20033;-73
2021/07/05 03:39:48;;;;;;;3.22;1.27;;;16.20;99.90;;;;;;5043991;28;20040;-73
2021/07/05 03:42:14;;;;;;;7.72;2.38;;;16.30;99.90;;;;;;5042887;28;20041;-73
2021/07/05 03:44:40;;;;;;;2.55;1.27;;;16.50;99.90;;;;;;5044537;28;20036;-73
2021/07/05 03:47:06;;;;;;;3.55;1.40;;;16.60;99.90;;;;;;5048007;28;20104;-73
2021/07/05 03:49:31;;;;;;;2.85;1.45;;;16.40;99.90;;;;;;5048218;28;20123;-73
2021/07/05 03:51:57;;;;;;;3.38;1.95;;;16.40;99.90;;;;;;5047226;28;20045;-73
2021/07/05 03:54:23;;;;;;;2.47;1.30;;;16.40;99.90;;;;;;5047308;28;20037;-73
2021/07/05 03:56:49;;;;;;;3.90;1.30;;;16.60;99.90;;;;;;5048170;28;20095;-73
2021/07/05 03:59:15;;;;;;;2.08;1.05;;;16.70;99.90;;;;;;5047940;28;20162;-73
2021/07/05 04:01:41;;;;;;;2.28;1.15;;;16.80;99.90;;;;;;5047319;28;20100;-73
2021/07/05 04:04:07;;;;;;;2.97;1.13;;;16.70;99.90;;;;;;5046209;28;20638;-73
2021/07/05 04:06:33;;;;;;;2.97;1.02;;;16.70;99.90;;;;;;5047376;28;20025;-73
2021/07/05 04:09:00;;;;;;;2.35;1.15;;;16.50;99.90;;;;;;5045789;28;20021;-73
2021/07/05 04:11:26;;;;;;;5.50;1.17;;;16.40;99.90;;;;;;5046210;28;20048;-73
2021/07/05 04:13:51;;;;;;;2.22;1.13;;;16.30;99.90;;;;;;5045991;28;20087;-73
2021/07/05 04:16:18;;;;;;;3.97;0.93;;;16.20;99.90;;;;;;5045717;28;20673;-73
2021/07/05 04:18:43;;;;;;;1.90;0.80;;;16.00;99.90;;;;;;5045966;28;20036;-73
2021/07/05 04:21:09;;;;;;;2.88;1.20;;;16.00;99.90;;;;;;5045665;28;20090;-73
2021/07/05 04:23:35;;;;;;;3.67;1.50;;;16.00;99.90;;;;;;5044952;28;20036;-73
2021/07/05 04:26:02;;;;;;;3.90;1.60;;;16.10;99.90;;;;;;5045313;28;20059;-73
2021/07/05 04:28:29;;;;;;;2.10;1.02;;;16.00;99.90;;;;;;5047024;28;20025;-73
2021/07/05 04:30:54;;;;;;;2.60;1.20;;;16.10;99.90;;;;;;5047488;28;20041;-73
2021/07/05 04:33:20;;;;;;;2.25;1.08;;;16.20;99.90;;;;;;5046874;28;20120;-73
2021/07/05 04:35:46;;;;;;;4.80;1.45;;;16.30;99.90;;;;;;5047135;28;20028;-73
2021/07/05 04:38:12;;;;;;;1.70;0.90;;;16.30;99.90;;;;;;5046922;28;20032;-73
2021/07/05 04:40:39;;;;;;;1.98;1.00;;;16.20;99.90;;;;;;5047524;28;20040;-73
2021/07/05 04:43:06;;;;;;;2.85;1.10;;;16.30;99.90;;;;;;5051247;28;20051;-74
2021/07/05 04:45:33;;;;;;;2.50;0.90;;;16.20;99.90;;;;;;5066867;28;20032;-73
2021/07/05 04:48:01;;;;;;;2.50;1.27;;;16.40;99.90;;;;;;5046532;28;20028;-73
2021/07/05 04:50:28;;;;;;;3.47;0.90;;;16.40;99.90;;;;;;5047224;28;20108;-73
2021/07/05 04:52:54;;;;;;;1.75;0.90;;;16.40;99.90;;;;;;5046582;28;20503;-73
2021/07/05 04:55:21;;;;;;;1.35;0.70;;;16.30;99.90;;;;;;5046679;28;20058;-73
2021/07/05 04:57:48;;;;;;;1.95;0.90;;;16.50;99.90;;;;;;5045435;28;20028;-73
2021/07/05 05:00:21;;;;;;;1.95;1.10;;;16.40;99.90;;;;;;5047557;28;20033;-73
2021/07/05 05:02:47;;;;;;;1.88;0.82;;;16.50;99.90;;;;;;5046428;28;20175;-73
2021/07/05 05:05:13;;;;;;;1.60;0.90;;;16.60;99.90;;;;;;5046204;28;20771;-73
2021/07/05 05:07:39;;;;;;;1.48;0.70;;;16.50;99.90;;;;;;5045423;28;20135;-73
2021/07/05 05:10:08;;;;;;;2.80;0.80;;;16.50;99.90;;;;;;5039020;28;20371;-73
2021/07/05 05:12:34;;;;;;;1.92;1.00;;;16.50;99.90;;;;;;5044630;28;20037;-74
2021/07/05 05:15:00;;;;;;;3.70;0.80;;;16.50;99.90;;;;;;5043380;28;20051;-73
2021/07/05 05:17:26;;;;;;;2.70;1.20;;;16.60;99.90;;;;;;5043973;28;20555;-74
2021/07/05 05:19:51;;;;;;;1.55;0.98;;;16.40;99.90;;;;;;5042403;28;20029;-73
2021/07/05 05:22:17;;;;;;;4.85;1.08;;;16.40;99.90;;;;;;5044044;28;20150;-73
2021/07/05 05:24:43;;;;;;;1.55;0.88;;;16.50;99.90;;;;;;5045168;28;20029;-73
2021/07/05 05:27:10;;;;;;;1.05;0.70;;;16.50;99.90;;;;;;5044087;28;20543;-73
2021/07/05 05:29:36;;;;;;;2.80;1.13;;;16.50;99.90;;;;;;5045730;28;20037;-73
2021/07/05 05:32:02;;;;;;;2.40;1.33;;;16.60;99.90;;;;;;5045855;28;20098;-73
2021/07/05 05:34:28;;;;;;;3.17;1.27;;;16.50;99.90;;;;;;5045833;28;20036;-73
2021/07/05 05:36:54;;;;;;;1.80;0.98;;;16.60;99.90;;;;;;5045643;28;20032;-73
2021/07/05 05:39:20;;;;;;;2.15;1.02;;;16.60;99.90;;;;;;5043749;28;20033;-73
2021/07/05 05:41:46;;;;;;;1.50;0.82;;;16.60;99.90;;;;;;5045869;28;20048;-74
2021/07/05 05:44:12;;;;;;;1.95;1.15;;;16.60;99.90;;;;;;5046255;28;20025;-73
2021/07/05 05:46:37;;;;;;;3.25;1.58;;;16.60;99.90;;;;;;5045941;28;20033;-73
2021/07/05 05:49:04;;;;;;;4.32;1.13;;;16.70;99.90;;;;;;5045339;28;20495;-73
2021/07/05 05:51:32;;;;;;;2.63;0.95;;;16.70;99.90;;;;;;5045699;28;20045;-73
2021/07/05 05:53:59;;;;;;;2.25;0.85;;;16.80;99.90;;;;;;5046106;28;20021;-74
2021/07/05 05:56:27;;;;;;;1.98;1.00;;;17.00;99.90;;;;;;5045554;28;20052;-72
2021/07/05 05:58:55;;;;;;;2.95;1.00;;;17.10;99.90;;;;;;5045469;28;20025;-73
2021/07/05 06:01:20;;;;;;;8.93;1.17;;;17.40;99.90;;;;;;5045554;28;20479;-73
2021/07/05 06:03:46;;;;;;;2.10;0.77;;;17.40;99.90;;;;;;5043408;28;20097;-73
2021/07/05 06:06:12;;;;;;;2.15;0.82;;;17.40;99.90;;;;;;5044715;28;20497;-72
2021/07/05 06:08:37;;;;;;;2.33;0.60;;;17.40;99.90;;;;;;5045261;28;20040;-73
2021/07/05 06:11:03;;;;;;;1.45;0.82;;;17.30;99.90;;;;;;5030335;28;20041;-73
2021/07/05 06:13:29;;;;;;;4.53;1.42;;;17.30;99.90;;;;;;5042727;28;20543;-73
2021/07/05 06:15:54;;;;;;;1.85;0.85;;;17.30;99.90;;;;;;5044159;28;20039;-73
2021/07/05 06:18:20;;;;;;;2.08;0.80;;;17.30;99.90;;;;;;5047475;28;20021;-75
2021/07/05 06:20:46;;;;;;;6.90;0.82;;;17.40;99.90;;;;;;5042471;28;20053;-73
2021/07/05 06:23:26;;;;;;;1.02;0.60;;;17.50;99.90;;;;;;5043315;28;20033;-73
2021/07/05 06:25:53;;;;;;;1.80;0.50;;;17.50;99.90;;;;;;5043065;28;20029;-73
2021/07/05 06:28:20;;;;;;;2.42;0.52;;;17.60;99.90;;;;;;5043395;28;20064;-75
2021/07/05 06:30:47;;;;;;;2.47;0.60;;;17.70;99.90;;;;;;5043554;28;20041;-73
2021/07/05 06:33:14;;;;;;;3.15;0.95;;;17.70;99.90;;;;;;5044353;28;20024;-72
2021/07/05 06:35:41;;;;;;;1.05;0.60;;;17.70;99.90;;;;;;5044690;28;20076;-72
2021/07/05 06:38:08;;;;;;;3.38;0.60;;;17.80;99.90;;;;;;5040035;28;20124;-72
2021/07/05 06:40:34;;;;;;;1.08;0.55;;;17.90;99.90;;;;;;5035216;28;20033;-72
2021/07/05 06:43:00;;;;;;;0.90;0.50;;;17.90;99.90;;;;;;5044270;28;20052;-72
2021/07/05 06:45:25;;;;;;;1.58;0.70;;;18.00;99.90;;;;;;5032471;28;20045;-72
2021/07/05 06:47:51;;;;;;;4.45;0.65;;;18.00;99.90;;;;;;5024657;28;21116;-72
2021/07/05 06:50:17;;;;;;;1.83;0.93;;;18.10;99.90;;;;;;5026678;28;20083;-72
2021/07/05 06:52:43;;;;;;;2.25;0.55;;;18.10;99.90;;;;;;5040723;28;20033;-72
2021/07/05 06:55:09;;;;;;;1.42;0.88;;;18.10;99.90;;;;;;5043204;28;20071;-72
2021/07/05 06:57:35;;;;;;;1.55;0.65;;;18.30;99.90;;;;;;5034591;28;20021;-72
2021/07/05 07:00:10;;;;;;;3.03;0.93;;;18.40;99.90;;;;;;5029786;28;20622;-72
2021/07/05 07:02:37;;;;;;;;;;;18.50;99.90;;;;;;5041136;28;20033;-72
2021/07/05 07:05:07;;;;;;;1.02;0.63;;;18.80;99.90;;;;;;5024733;28;20239;-72
2021/07/05 07:07:33;;;;;;;2.92;0.77;;;19.00;99.90;;;;;;5041768;28;20055;-72
2021/07/05 07:09:59;;;;;;;1.88;0.85;;;19.10;99.90;;;;;;5024559;28;20029;-73
2021/07/05 07:12:25;;;;;;;3.95;2.42;;;19.40;99.90;;;;;;5027485;28;20033;-72
2021/07/05 07:14:51;;;;;;;2.88;0.80;;;19.60;99.90;;;;;;5032921;28;20452;-73
2021/07/05 07:17:24;;;;;;;2.50;0.65;;;19.80;99.90;;;;;;5025473;28;20026;-73
2021/07/05 07:19:50;;;;;;;4.63;0.95;;;20.00;99.90;;;;;;5039977;28;20057;-74
2021/07/05 07:22:16;;;;;;;3.30;0.70;;;20.20;99.90;;;;;;5040367;28;20549;-74
2021/07/05 07:24:42;;;;;;;2.53;0.68;;;20.40;99.90;;;;;;5024830;28;20054;-75
2021/07/05 07:27:08;;;;;;;1.77;0.60;;;20.60;99.90;;;;;;5024265;28;20472;-73
2021/07/05 07:29:34;;;;;;;0.93;0.50;;;20.70;99.90;;;;;;5038209;28;20052;-74
2021/07/05 07:31:59;;;;;;;2.15;1.00;;;20.70;99.90;;;;;;5036025;28;20033;-74
2021/07/05 07:34:25;;;;;;;3.60;0.82;;;21.10;99.90;;;;;;5024162;28;20067;-74
2021/07/05 07:36:51;;;;;;;2.00;0.88;;;21.60;98.90;;;;;;5024278;28;20051;-74
2021/07/05 07:39:22;;;;;;;1.83;0.70;;;22.20;99.00;;;;;;5028103;28;20513;-74
2021/07/05 07:41:48;;;;;;;2.25;0.60;;;23.10;97.90;;;;;;5036893;28;20582;-75
2021/07/05 07:44:14;;;;;;;1.30;0.57;;;23.90;96.70;;;;;;5039452;28;20036;-75
2021/07/05 07:46:39;;;;;;;3.15;0.63;;;24.90;95.10;;;;;;5024373;28;20483;-74
2021/07/05 07:49:05;;;;;;;4.13;0.57;;;25.40;94.70;;;;;;5024158;28;20459;-75
2021/07/05 07:51:31;;;;;;;0.80;0.60;;;25.20;94.10;;;;;;5033791;28;20037;-74
2021/07/05 07:53:58;;;;;;;1.52;0.70;;;24.70;94.90;;;;;;5026081;28;20022;-74
2021/07/05 07:56:24;;;;;;;3.60;0.80;;;24.20;95.20;;;;;;5024265;28;20124;-74
2021/07/05 07:58:50;;;;;;;1.40;0.82;;;24.00;95.70;;;;;;5023305;28;20112;-74
2021/07/05 08:01:16;;;;;;;2.83;0.95;;;23.90;95.70;;;;;;5024056;28;20550;-75
2021/07/05 08:03:41;;;;;;;2.65;0.63;;;23.40;95.60;;;;;;5044778;28;20025;-75
2021/07/05 08:06:07;;;;;;;4.95;0.73;;;23.10;96.00;;;;;;5031048;28;20040;-74
2021/07/05 08:08:33;;;;;;;2.15;0.75;;;22.80;96.60;;;;;;5027208;28;20033;-74
2021/07/05 08:10:59;;;;;;;2.78;0.70;;;22.70;96.10;;;;;;5046085;28;20029;-76
2021/07/05 08:13:25;;;;;;;0.70;0.50;;;22.80;97.00;;;;;;5041191;28;20033;-75
2021/07/05 08:15:52;;;;;;;0.90;0.50;;;23.30;96.70;;;;;;5023659;28;20021;-76
2021/07/05 08:18:19;;;;;;;2.10;0.43;;;23.50;96.30;;;;;;5023035;28;20047;-76
2021/07/05 08:20:45;;;;;;;0.82;0.50;;;23.80;96.70;;;;;;5024040;28;20021;-75
2021/07/05 08:23:11;;;;;;;1.65;0.50;;;23.80;95.80;;;;;;5025607;28;20501;-76
2021/07/05 08:25:36;;;;;;;3.90;0.65;;;23.50;95.60;;;;;;5042283;28;20092;-76
2021/07/05 08:28:03;;;;;;;1.65;0.52;;;23.70;95.90;;;;;;5024355;28;20029;-73
2021/07/05 08:30:29;;;;;;;2.70;0.52;;;23.50;95.90;;;;;;5043660;28;20017;-73
2021/07/05 08:32:55;;;;;;;1.17;0.60;;;23.50;96.30;;;;;;5044858;28;20082;-74
2021/07/05 08:35:22;;;;;;;1.75;0.57;;;23.10;96.00;;;;;;5045792;28;20133;-74
2021/07/05 08:37:49;;;;;;;0.77;0.45;;;23.30;96.00;;;;;;5035862;28;20483;-73
2021/07/05 08:40:15;;;;;;;9.23;0.77;;;22.80;96.50;;;;;;5041452;28;20031;-73
2021/07/05 08:42:42;;;;;;;1.88;0.60;;;23.10;96.40;;;;;;5047160;28;20041;-74
2021/07/05 08:45:08;;;;;;;1.55;0.30;;;23.50;95.00;;;;;;5031161;28;20033;-74
2021/07/05 08:47:42;;;;;;;2.67;0.60;;;23.10;95.00;;;;;;5035602;28;20049;-75
2021/07/05 08:50:11;;;;;;;2.05;0.60;;;23.40;95.60;;;;;;5045714;28;20025;-72
2021/07/05 08:52:42;;;;;;;6.32;1.25;;;23.50;95.50;;;;;;5040080;28;20543;-73
2021/07/05 08:55:09;;;;;;;2.28;0.60;;;23.70;95.10;;;;;;5037687;28;20041;-73
2021/07/05 08:57:38;;;;;;;5.55;0.70;;;23.80;95.60;;;;;;5040161;28;20021;-73
2021/07/05 09:00:08;;;;;;;0.40;0.30;;;24.00;95.30;;;;;;5042544;28;20037;-74
2021/07/05 09:02:33;;;;;;;0.75;0.47;;;23.90;94.40;;;;;;5044670;28;20139;-74
2021/07/05 09:05:00;;;;;;;1.23;0.60;;;24.10;94.00;;;;;;5045560;28;20530;-72
2021/07/05 09:07:25;;;;;;;3.83;0.70;;;23.90;94.10;;;;;;5046405;28;20498;-71
2021/07/05 09:10:08;;;;;;;0.47;0.30;;;24.10;94.60;;;;;;5046170;28;20025;-71
2021/07/05 09:12:34;;;;;;;1.13;0.57;;;23.70;93.10;;;;;;5040929;28;20048;-74
2021/07/05 09:15:12;;;;;;;3.00;0.40;;;24.20;94.10;;;;;;5042142;28;20034;-73
2021/07/05 09:20:37;;;;;;;4.28;0.60;;;24.30;91.90;;;;;;5027332;28;20059;-73
2021/07/05 09:23:23;;;;;;;1.60;0.50;;;24.50;92.20;;;;;;5026233;28;20021;-73
2021/07/05 09:26:03;;;;;;;1.15;0.55;;;24.80;93.90;;;;;;5030881;28;20201;-72
2021/07/05 09:28:37;;;;;;;1.35;0.40;;;24.80;93.30;;;;;;5040385;28;20033;-72
2021/07/05 09:31:03;;;;;;;1.85;0.40;;;24.70;93.20;;;;;;5038573;28;20090;-72
2021/07/05 09:33:29;;;;;;;1.05;0.50;;;24.60;93.30;;;;;;5030676;28;20087;-72
2021/07/05 09:36:01;;;;;;;4.43;1.13;;;24.50;92.60;;;;;;5026166;28;20025;-72
2021/07/05 09:38:31;;;;;;;1.52;0.60;;;24.60;92.50;;;;;;5026789;28;20037;-72
2021/07/05 09:40:57;;;;;;;0.60;0.30;;;24.60;91.90;;;;;;5028726;28;20036;-74
2021/07/05 09:43:28;;;;;;;2.17;0.40;;;24.80;91.60;;;;;;5031015;28;20385;-73
2021/07/05 09:45:54;;;;;;;5.72;0.75;;;25.00;91.60;;;;;;5024949;28;20087;-71
2021/07/05 09:48:23;;;;;;;1.60;0.50;;;25.10;91.70;;;;;;5031728;28;20028;-73
2021/07/05 09:50:59;;;;;;;3.15;0.40;;;25.20;91.20;;;;;;5038028;28;20065;-73
2021/07/05 09:53:32;;;;;;;0.75;0.52;;;25.10;91.10;;;;;;5026267;28;20021;-70
2021/07/05 09:56:20;;;;;;;1.05;0.28;;;25.50;90.40;;;;;;5028837;28;20025;-73
2021/07/05 09:58:48;;;;;;;1.00;0.47;;;25.90;90.90;;;;;;5040328;28;20045;-72
2021/07/05 10:01:34;;;;;;;0.35;0.25;;;26.20;90.70;;;;;;5053171;28;20036;-74
2021/07/05 10:04:04;;;;;;;0.98;0.50;;;26.40;91.00;;;;;;5028705;28;20040;-73
2021/07/05 10:06:37;;;;;;;1.50;0.63;;;26.30;91.50;;;;;;5033248;28;20051;-76
2021/07/05 10:09:02;;;;;;;2.10;0.52;;;26.30;91.80;;;;;;5043395;28;20032;-76
2021/07/05 10:11:28;;;;;;;7.47;4.97;;;26.40;92.00;;;;;;5033327;28;20055;-74
2021/07/05 10:14:14;;;;;;;1.15;0.50;;;26.80;91.10;;;;;;5042212;28;20586;-78
2021/07/05 10:16:43;;;;;;;1.08;0.43;;;26.70;90.50;;;;;;5043358;28;20028;-74
2021/07/05 10:19:10;;;;;;;0.85;0.45;;;26.80;89.40;;;;;;5045468;28;20032;-78
2021/07/05 10:21:37;;;;;;;0.70;0.30;;;25.90;89.10;;;;;;5056435;28;20024;-78
2021/07/05 10:24:05;;;;;;;2.03;0.30;;;25.50;89.60;;;;;;5045204;28;20128;-78
2021/07/05 10:26:32;;;;;;;1.35;0.40;;;25.50;90.90;;;;;;5025333;28;20449;-76
2021/07/05 10:28:59;;;;;;;0.65;0.40;;;25.70;90.70;;;;;;5034891;28;20041;-77
2021/07/05 10:31:26;;;;;;;3.85;0.80;;;25.90;90.90;;;;;;5044468;28;20036;-75
2021/07/05 10:33:52;;;;;;;2.20;0.80;;;26.10;91.70;;;;;;5044948;28;20033;-75
2021/07/05 10:36:20;;;;;;;2.08;0.65;;;26.10;91.10;;;;;;5044815;28;20043;-77
2021/07/05 10:38:55;;;;;;;1.67;0.80;;;26.40;90.80;;;;;;5045075;28;20035;-76
2021/07/05 10:41:31;;;;;;;3.00;0.60;;;26.50;90.80;;;;;;5057032;28;20051;-74
2021/07/05 10:44:04;;;;;;;1.77;0.70;;;26.40;89.00;;;;;;5044205;28;20045;-76
2021/07/05 10:46:53;;;;;;;1.48;0.57;;;26.30;89.90;;;;;;5043874;28;20025;-74
2021/07/05 10:49:28;;;;;;;0.57;0.38;;;26.00;91.00;;;;;;5044765;28;20483;-74
2021/07/05 10:52:00;;;;;;;1.38;0.57;;;25.90;90.70;;;;;;5043505;28;20036;-72
2021/07/05 10:54:42;;;;;;;18.13;1.98;;;25.80;90.80;;;;;;5044740;28;20032;-72
2021/07/05 10:57:08;;;;;;;3.10;0.52;;;25.70;92.60;;;;;;5044459;28;20037;-73
2021/07/05 10:59:36;;;;;;;2.00;0.68;;;25.80;92.20;;;;;;5037743;28;20021;-75
2021/07/05 11:02:32;;;;;;;0.68;0.40;;;25.80;91.80;;;;;;5040521;28;20040;-73
2021/07/05 11:04:58;;;;;;;1.42;0.40;;;26.00;91.70;;;;;;5042456;28;20059;-73
2021/07/05 11:07:44;;;;;;;23.80;2.10;;;26.20;92.10;;;;;;5042880;28;20368;-72
2021/07/05 11:10:39;;;;;;;3.10;0.88;;;26.20;92.90;;;;;;5042085;28;20029;-72
2021/07/05 11:13:05;;;;;;;1.17;0.40;;;26.40;91.50;;;;;;5032629;28;20053;-72
2021/07/05 11:15:54;;;;;;;1.30;0.57;;;26.70;91.60;;;;;;5042312;28;20033;-72
2021/07/05 11:18:38;;;;;;;0.55;0.30;;;26.60;90.40;;;;;;5043057;28;20027;-72
2021/07/05 11:21:05;;;;;;;3.03;0.50;;;26.20;90.40;;;;;;5043168;28;20392;-72
2021/07/05 11:24:10;;;;;;;2.33;0.60;;;26.30;92.00;;;;;;5042741;28;20036;-72
2021/07/05 11:26:39;;;;;;;2.50;0.70;;;26.40;91.70;;;;;;5001647;28;20113;-72
2021/07/05 11:29:17;;;;;;;5.20;0.80;;;26.50;91.40;;;;;;5001968;28;20133;-73
2021/07/05 11:31:54;;;;;;;0.93;0.50;;;26.60;91.30;;;;;;5013996;28;20056;-73
2021/07/05 11:34:40;;;;;;;1.85;0.35;;;26.60;88.30;;;;;;5024135;28;20112;-72
2021/07/05 11:37:12;;;;;;;3.42;0.63;;;26.50;90.00;;;;;;5040998;28;20041;-73
2021/07/05 11:39:52;;;;;;;3.30;0.43;;;26.50;89.00;;;;;;5043533;28;20116;-72
2021/07/05 11:42:33;;;;;;;1.90;0.57;;;26.50;88.30;;;;;;5044458;28;20051;-72
2021/07/05 11:45:00;;;;;;;0.68;0.32;;;26.70;87.50;;;;;;5044420;28;20025;-73
2021/07/05 11:47:38;;;;;;;1.17;0.35;;;26.70;90.30;;;;;;5044635;28;20025;-73
2021/07/05 11:50:21;;;;;;;2.80;0.60;;;26.60;89.00;;;;;;5044549;28;20037;-73
2021/07/05 11:53:04;;;;;;;2.15;0.40;;;26.30;88.90;;;;;;5044443;28;20033;-72
2021/07/05 11:55:32;;;;;;;1.55;0.20;;;26.30;89.40;;;;;;5044205;28;20087;-73
2021/07/05 11:58:01;;;;;;;0.75;0.30;;;26.50;88.80;;;;;;5043924;28;20111;-73
2021/07/05 12:00:30;;;;;;;0.60;0.30;;;26.70;89.50;;;;;;5036488;28;20036;-72
2021/07/05 12:03:09;;;;;;;1.10;0.55;;;26.80;89.10;;;;;;5043647;28;20087;-73
2021/07/05 12:05:36;;;;;;;1.45;0.50;;;26.80;89.10;;;;;;5043422;28;20027;-72
2021/07/05 12:08:13;;;;;;;2.08;0.52;;;26.90;88.80;;;;;;5046324;28;20044;-73
2021/07/05 12:10:41;;;;;;;1.30;0.43;;;27.00;88.60;;;;;;5048440;28;20029;-73
2021/07/05 12:13:26;;;;;;;1.20;0.30;;;27.00;85.20;;;;;;5047510;28;20028;-73
2021/07/05 12:16:05;;;;;;;1.40;0.60;;;26.60;86.30;;;;;;5028083;28;20025;-73
2021/07/05 12:18:31;;;;;;;2.63;0.50;;;26.50;86.40;;;;;;5027175;28;20032;-73
2021/07/05 12:21:02;;;;;;;1.25;0.35;;;26.50;86.80;;;;;;5026579;28;20021;-73
2021/07/05 12:23:37;;;;;;;10.38;1.10;;;26.80;88.40;;;;;;5036360;28;20029;-73
2021/07/05 12:26:14;;;;;;;11.07;1.35;;;26.80;86.30;;;;;;5048319;28;20504;-73
2021/07/05 12:29:09;;;;;;;3.70;0.57;;;27.10;87.90;;;;;;5047979;28;20709;-73
2021/07/05 12:31:35;;;;;;;11.35;1.92;;;27.00;87.90;;;;;;5047843;28;20521;-73
2021/07/05 12:34:02;;;;;;;1.25;0.40;;;27.00;86.30;;;;;;5046833;28;20025;-73
2021/07/05 12:36:33;;;;;;;0.40;0.30;;;26.90;86.20;;;;;;5047651;28;20024;-72
2021/07/05 12:39:06;;;;;;;2.17;0.75;;;26.70;87.90;;;;;;5047547;28;20032;-72
2021/07/05 12:41:32;;;;;;;1.65;0.63;;;27.00;90.20;;;;;;5047580;28;20029;-73
2021/07/05 12:44:16;;;;;;;2.42;0.32;;;26.70;87.20;;;;;;5046811;28;20045;-73
2021/07/05 12:46:43;;;;;;;0.35;0.20;;;27.10;86.60;;;;;;5047099;28;20102;-73
2021/07/05 12:49:09;;;;;;;0.93;0.28;;;27.50;83.40;;;;;;5047312;28;20425;-73
2021/07/05 12:51:36;;;;;;;0.20;0.20;;;27.80;83.90;;;;;;5047151;28;20030;-73
2021/07/05 12:54:19;;;;;;;0.43;0.28;;;27.60;79.80;;;;;;5047040;28;20533;-73
2021/07/05 12:56:45;;;;;;;0.40;0.28;;;27.90;80.60;;;;;;5047109;28;20031;-73
2021/07/05 12:59:19;;;;;;;1.75;0.38;;;28.10;82.60;;;;;;5047090;28;20028;-73